sensor_id;sensor_type;location;lat;lon;timestamp;pressure;altitude;pressure_sealevel;temperature;humidity
49945;BME280;35838;49.134;9.212;2023-06-26T00:01:20;99749.03;;;22.01;100.00
49945;BME280;35838;49.134;9.212;2023-06-26T00:02:54;99758.50;;;21.89;100.00
49945;BME280;35838;49.134;9.212;2023-06-26T00:04:28;99750.75;;;21.86;100.00
49945;BME280;35838;49.134;9.212;2023-06-26T00:06:01;99749.78;;;21.71;100.00
49945;BME280;35838;49.134;9.212;2023-06-26T00:07:35;99744.31;;;21.74;100.00
49945;BME280;35838;49.134;9.212;2023-06-26T00:09:11;99746.66;;;21.80;100.00
49945;BME280;35838;49.134;9.212;2023-06-26T00:10:45;99747.56;;;21.79;100.00
49945;BME280;35838;49.134;9.212;2023-06-26T00:12:22;99741.59;;;21.75;100.00
49945;BME280;35838;49.134;9.212;2023-06-26T00:13:55;99753.53;;;21.83;100.00
49945;BME280;35838;49.134;9.212;2023-06-26T00:15:30;99749.88;;;21.85;100.00
49945;BME280;35838;49.134;9.212;2023-06-26T00:17:04;99756.19;;;21.83;100.00
49945;BME280;35838;49.134;9.212;2023-06-26T00:18:37;99751.94;;;21.80;100.00
49945;BME280;35838;49.134;9.212;2023-06-26T00:20:11;99753.16;;;21.73;100.00
49945;BME280;35838;49.134;9.212;2023-06-26T00:21:45;99755.81;;;21.73;100.00
49945;BME280;35838;49.134;9.212;2023-06-26T00:23:18;99759.91;;;21.79;100.00
49945;BME280;35838;49.134;9.212;2023-06-26T00:24:54;99751.16;;;21.78;100.00
49945;BME280;35838;49.134;9.212;2023-06-26T00:26:28;99751.06;;;21.80;100.00
49945;BME280;35838;49.134;9.212;2023-06-26T00:28:01;99750.13;;;21.81;100.00
49945;BME280;35838;49.134;9.212;2023-06-26T00:29:35;99752.75;;;21.81;100.00
49945;BME280;35838;49.134;9.212;2023-06-26T00:31:09;99753.16;;;21.73;100.00
49945;BME280;35838;49.134;9.212;2023-06-26T00:32:42;99754.88;;;21.74;100.00
49945;BME280;35838;49.134;9.212;2023-06-26T00:34:16;99755.53;;;21.62;100.00
49945;BME280;35838;49.134;9.212;2023-06-26T00:35:50;99754.50;;;21.64;100.00
49945;BME280;35838;49.134;9.212;2023-06-26T00:37:23;99747.19;;;21.69;100.00
49945;BME280;35838;49.134;9.212;2023-06-26T00:38:57;99742.78;;;21.70;100.00
49945;BME280;35838;49.134;9.212;2023-06-26T00:40:33;99741.22;;;21.66;100.00
49945;BME280;35838;49.134;9.212;2023-06-26T00:42:07;99746.34;;;21.69;100.00
49945;BME280;35838;49.134;9.212;2023-06-26T00:43:40;99748.41;;;21.64;100.00
49945;BME280;35838;49.134;9.212;2023-06-26T00:45:14;99748.22;;;21.67;100.00
49945;BME280;35838;49.134;9.212;2023-06-26T00:46:48;99748.66;;;21.57;100.00
49945;BME280;35838;49.134;9.212;2023-06-26T00:48:21;99737.25;;;21.57;100.00
49945;BME280;35838;49.134;9.212;2023-06-26T00:49:55;99747.81;;;21.57;100.00
49945;BME280;35838;49.134;9.212;2023-06-26T00:51:29;99750.69;;;21.52;100.00
49945;BME280;35838;49.134;9.212;2023-06-26T00:53:00;99752.81;;;21.45;100.00
49945;BME280;35838;49.134;9.212;2023-06-26T00:54:34;99748.66;;;21.57;100.00
49945;BME280;35838;49.134;9.212;2023-06-26T00:56:10;99746.19;;;21.54;100.00
49945;BME280;35838;49.134;9.212;2023-06-26T00:57:44;99748.22;;;21.49;100.00
49945;BME280;35838;49.134;9.212;2023-06-26T00:59:18;99739.75;;;21.60;100.00
49945;BME280;35838;49.134;9.212;2023-06-26T01:00:52;99737.31;;;21.55;100.00
49945;BME280;35838;49.134;9.212;2023-06-26T01:02:25;99741.91;;;21.52;100.00
49945;BME280;35838;49.134;9.212;2023-06-26T01:04:04;99741.06;;;21.51;100.00
49945;BME280;35838;49.134;9.212;2023-06-26T01:05:37;99731.19;;;21.55;100.00
49945;BME280;35838;49.134;9.212;2023-06-26T01:07:09;99739.91;;;21.57;100.00
49945;BME280;35838;49.134;9.212;2023-06-26T01:08:42;99745.25;;;21.55;100.00
49945;BME280;35838;49.134;9.212;2023-06-26T01:10:14;99740.28;;;21.49;100.00
49945;BME280;35838;49.134;9.212;2023-06-26T01:11:50;99742.16;;;21.47;100.00
49945;BME280;35838;49.134;9.212;2023-06-26T01:13:24;99751.50;;;21.37;100.00
49945;BME280;35838;49.134;9.212;2023-06-26T01:14:58;99741.19;;;21.32;100.00
49945;BME280;35838;49.134;9.212;2023-06-26T01:16:29;99737.84;;;21.28;100.00
49945;BME280;35838;49.134;9.212;2023-06-26T01:18:03;99746.06;;;21.22;100.00
49945;BME280;35838;49.134;9.212;2023-06-26T01:19:34;99738.31;;;21.19;100.00
49945;BME280;35838;49.134;9.212;2023-06-26T01:21:08;99734.91;;;21.17;100.00
49945;BME280;35838;49.134;9.212;2023-06-26T01:22:45;99736.75;;;21.15;100.00
49945;BME280;35838;49.134;9.212;2023-06-26T01:24:18;99740.97;;;21.19;100.00
49945;BME280;35838;49.134;9.212;2023-06-26T01:26:09;99736.84;;;21.13;100.00
49945;BME280;35838;49.134;9.212;2023-06-26T01:27:43;99741.19;;;21.15;100.00
49945;BME280;35838;49.134;9.212;2023-06-26T01:29:18;99730.69;;;21.13;100.00
49945;BME280;35838;49.134;9.212;2023-06-26T01:30:54;99724.03;;;21.06;100.00
49945;BME280;35838;49.134;9.212;2023-06-26T01:32:25;99731.16;;;21.04;100.00
49945;BME280;35838;49.134;9.212;2023-06-26T01:33:59;99725.13;;;21.02;100.00
49945;BME280;35838;49.134;9.212;2023-06-26T01:35:31;99720.31;;;20.92;100.00
49945;BME280;35838;49.134;9.212;2023-06-26T01:37:05;99723.09;;;20.89;100.00
49945;BME280;35838;49.134;9.212;2023-06-26T01:38:38;99717.03;;;20.87;100.00
49945;BME280;35838;49.134;9.212;2023-06-26T01:40:12;99719.91;;;20.82;100.00
49945;BME280;35838;49.134;9.212;2023-06-26T01:41:48;99717.50;;;20.78;100.00
49945;BME280;35838;49.134;9.212;2023-06-26T01:43:24;99715.94;;;20.74;100.00
49945;BME280;35838;49.134;9.212;2023-06-26T01:45:01;99711.88;;;20.66;100.00
49945;BME280;35838;49.134;9.212;2023-06-26T01:46:36;99716.06;;;20.71;100.00
49945;BME280;35838;49.134;9.212;2023-06-26T01:48:10;99712.63;;;20.69;100.00
49945;BME280;35838;49.134;9.212;2023-06-26T01:49:43;99719.47;;;20.73;100.00
49945;BME280;35838;49.134;9.212;2023-06-26T01:51:17;99717.75;;;20.72;100.00
49945;BME280;35838;49.134;9.212;2023-06-26T01:52:53;99716.66;;;20.77;100.00
49945;BME280;35838;49.134;9.212;2023-06-26T01:54:33;99713.09;;;20.59;100.00
49945;BME280;35838;49.134;9.212;2023-06-26T01:56:11;99707.53;;;20.65;100.00
49945;BME280;35838;49.134;9.212;2023-06-26T01:57:49;99711.22;;;20.61;100.00
49945;BME280;35838;49.134;9.212;2023-06-26T01:59:25;99706.28;;;20.55;100.00
49945;BME280;35838;49.134;9.212;2023-06-26T02:01:00;99703.63;;;20.55;100.00
49945;BME280;35838;49.134;9.212;2023-06-26T02:02:34;99711.31;;;20.60;100.00
49945;BME280;35838;49.134;9.212;2023-06-26T02:04:07;99713.84;;;20.44;100.00
49945;BME280;35838;49.134;9.212;2023-06-26T02:05:38;99707.41;;;20.49;100.00
49945;BME280;35838;49.134;9.212;2023-06-26T02:07:12;99711.69;;;20.52;100.00
49945;BME280;35838;49.134;9.212;2023-06-26T02:08:46;99709.81;;;20.54;100.00
49945;BME280;35838;49.134;9.212;2023-06-26T02:10:19;99709.69;;;20.38;100.00
49945;BME280;35838;49.134;9.212;2023-06-26T02:11:53;99714.56;;;20.28;100.00
49945;BME280;35838;49.134;9.212;2023-06-26T02:13:29;99713.66;;;20.29;100.00
49945;BME280;35838;49.134;9.212;2023-06-26T02:15:03;99713.44;;;20.34;100.00
49945;BME280;35838;49.134;9.212;2023-06-26T02:16:36;99716.28;;;20.29;100.00
49945;BME280;35838;49.134;9.212;2023-06-26T02:18:10;99713.88;;;20.25;100.00
49945;BME280;35838;49.134;9.212;2023-06-26T02:19:44;99713.16;;;20.21;100.00
49945;BME280;35838;49.134;9.212;2023-06-26T02:21:18;99715.50;;;20.08;100.00
49945;BME280;35838;49.134;9.212;2023-06-26T02:22:52;99712.88;;;20.08;100.00
49945;BME280;35838;49.134;9.212;2023-06-26T02:24:23;99722.00;;;20.01;100.00
49945;BME280;35838;49.134;9.212;2023-06-26T02:26:00;99716.94;;;19.96;100.00
49945;BME280;35838;49.134;9.212;2023-06-26T02:27:34;99716.56;;;19.85;100.00
49945;BME280;35838;49.134;9.212;2023-06-26T02:29:07;99717.41;;;19.85;100.00
49945;BME280;35838;49.134;9.212;2023-06-26T02:30:41;99724.47;;;19.85;100.00
49945;BME280;35838;49.134;9.212;2023-06-26T02:32:14;99729.03;;;19.80;100.00
49945;BME280;35838;49.134;9.212;2023-06-26T02:33:45;99732.63;;;19.79;100.00
49945;BME280;35838;49.134;9.212;2023-06-26T02:35:20;99727.09;;;19.85;100.00
49945;BME280;35838;49.134;9.212;2023-06-26T02:36:53;99726.81;;;19.91;100.00
49945;BME280;35838;49.134;9.212;2023-06-26T02:38:29;99726.41;;;20.00;100.00
49945;BME280;35838;49.134;9.212;2023-06-26T02:40:02;99725.69;;;19.76;100.00
49945;BME280;35838;49.134;9.212;2023-06-26T02:41:37;99726.69;;;19.94;100.00
49945;BME280;35838;49.134;9.212;2023-06-26T02:43:11;99730.09;;;19.96;100.00
49945;BME280;35838;49.134;9.212;2023-06-26T02:44:47;99722.84;;;20.01;100.00
49945;BME280;35838;49.134;9.212;2023-06-26T02:46:21;99722.97;;;19.98;100.00
49945;BME280;35838;49.134;9.212;2023-06-26T02:47:54;99726.69;;;19.94;100.00
49945;BME280;35838;49.134;9.212;2023-06-26T02:49:28;99726.53;;;19.97;100.00
49945;BME280;35838;49.134;9.212;2023-06-26T02:51:02;99721.03;;;20.02;100.00
49945;BME280;35838;49.134;9.212;2023-06-26T02:52:33;99717.44;;;20.04;100.00
49945;BME280;35838;49.134;9.212;2023-06-26T02:54:06;99715.16;;;19.97;100.00
49945;BME280;35838;49.134;9.212;2023-06-26T02:55:40;99715.28;;;19.94;100.00
49945;BME280;35838;49.134;9.212;2023-06-26T02:57:13;99724.91;;;19.95;100.00
49945;BME280;35838;49.134;9.212;2023-06-26T03:00:23;99718.38;;;19.83;100.00
49945;BME280;35838;49.134;9.212;2023-06-26T03:02:00;99729.03;;;19.80;100.00
49945;BME280;35838;49.134;9.212;2023-06-26T03:03:34;99730.75;;;19.81;100.00
49945;BME280;35838;49.134;9.212;2023-06-26T03:05:10;99714.81;;;19.84;100.00
49945;BME280;35838;49.134;9.212;2023-06-26T03:06:44;99721.09;;;19.81;100.00
49945;BME280;35838;49.134;9.212;2023-06-26T03:08:18;99726.78;;;19.72;100.00
49945;BME280;35838;49.134;9.212;2023-06-26T03:09:51;99717.25;;;19.69;100.00
49945;BME280;35838;49.134;9.212;2023-06-26T03:11:25;99726.81;;;19.70;100.00
49945;BME280;35838;49.134;9.212;2023-06-26T03:12:59;99726.06;;;19.68;100.00
49945;BME280;35838;49.134;9.212;2023-06-26T03:14:30;99733.88;;;19.70;100.00
49945;BME280;35838;49.134;9.212;2023-06-26T03:16:06;99728.03;;;19.63;100.00
49945;BME280;35838;49.134;9.212;2023-06-26T03:17:40;99730.59;;;19.65;100.00
49945;BME280;35838;49.134;9.212;2023-06-26T03:19:13;99735.28;;;19.58;100.00
49945;BME280;35838;49.134;9.212;2023-06-26T03:20:47;99731.97;;;19.53;100.00
49945;BME280;35838;49.134;9.212;2023-06-26T03:22:21;99734.28;;;19.61;100.00
49945;BME280;35838;49.134;9.212;2023-06-26T03:23:55;99731.16;;;19.71;100.00
49945;BME280;35838;49.134;9.212;2023-06-26T03:25:26;99735.38;;;19.76;100.00
49945;BME280;35838;49.134;9.212;2023-06-26T03:26:59;99736.63;;;19.67;100.00
49945;BME280;35838;49.134;9.212;2023-06-26T03:28:33;99736.84;;;19.62;100.00
49945;BME280;35838;49.134;9.212;2023-06-26T03:30:07;99738.72;;;19.60;100.00
49945;BME280;35838;49.134;9.212;2023-06-26T03:31:41;99737.13;;;19.56;100.00
49945;BME280;35838;49.134;9.212;2023-06-26T03:33:15;99745.94;;;19.55;100.00
49945;BME280;35838;49.134;9.212;2023-06-26T03:34:48;99749.47;;;19.54;100.00
49945;BME280;35838;49.134;9.212;2023-06-26T03:36:23;99747.66;;;19.56;100.00
49945;BME280;35838;49.134;9.212;2023-06-26T03:37:57;99752.78;;;19.59;100.00
49945;BME280;35838;49.134;9.212;2023-06-26T03:39:31;99749.63;;;19.51;100.00
49945;BME280;35838;49.134;9.212;2023-06-26T03:41:04;99749.88;;;19.45;100.00
49945;BME280;35838;49.134;9.212;2023-06-26T03:42:38;99748.41;;;19.39;100.00
49945;BME280;35838;49.134;9.212;2023-06-26T03:44:09;99754.69;;;19.35;100.00
49945;BME280;35838;49.134;9.212;2023-06-26T03:45:43;99751.53;;;19.26;100.00
49945;BME280;35838;49.134;9.212;2023-06-26T03:47:20;99752.53;;;19.24;100.00
49945;BME280;35838;49.134;9.212;2023-06-26T03:48:53;99755.69;;;19.32;100.00
49945;BME280;35838;49.134;9.212;2023-06-26T03:50:27;99755.63;;;19.34;100.00
49945;BME280;35838;49.134;9.212;2023-06-26T03:52:01;99749.75;;;19.27;100.00
49945;BME280;35838;49.134;9.212;2023-06-26T03:53:34;99750.69;;;19.26;100.00
49945;BME280;35838;49.134;9.212;2023-06-26T03:55:08;99754.25;;;19.25;100.00
49945;BME280;35838;49.134;9.212;2023-06-26T03:56:39;99751.34;;;19.31;100.00
49945;BME280;35838;49.134;9.212;2023-06-26T03:58:13;99750.28;;;19.35;100.00
49945;BME280;35838;49.134;9.212;2023-06-26T03:59:46;99756.59;;;19.31;100.00
49945;BME280;35838;49.134;9.212;2023-06-26T04:01:17;99749.88;;;19.45;100.00
49945;BME280;35838;49.134;9.212;2023-06-26T04:02:55;99759.25;;;19.52;100.00
49945;BME280;35838;49.134;9.212;2023-06-26T04:04:28;99751.66;;;19.44;100.00
49945;BME280;35838;49.134;9.212;2023-06-26T04:06:02;99751.34;;;19.52;100.00
49945;BME280;35838;49.134;9.212;2023-06-26T04:07:37;99749.88;;;19.45;100.00
49945;BME280;35838;49.134;9.212;2023-06-26T04:09:10;99753.47;;;19.44;100.00
49945;BME280;35838;49.134;9.212;2023-06-26T04:10:44;99753.59;;;19.40;100.00
49945;BME280;35838;49.134;9.212;2023-06-26T04:12:18;99748.31;;;19.40;100.00
49945;BME280;35838;49.134;9.212;2023-06-26T04:13:52;99758.16;;;19.35;100.00
49945;BME280;35838;49.134;9.212;2023-06-26T04:15:26;99752.25;;;19.30;100.00
49945;BME280;35838;49.134;9.212;2023-06-26T04:16:59;99750.94;;;19.40;100.00
49945;BME280;35838;49.134;9.212;2023-06-26T04:18:36;99753.91;;;19.33;100.00
49945;BME280;35838;49.134;9.212;2023-06-26T04:20:10;99760.13;;;19.09;100.00
49945;BME280;35838;49.134;9.212;2023-06-26T04:21:45;99767.09;;;19.10;100.00
49945;BME280;35838;49.134;9.212;2023-06-26T04:23:19;99768.63;;;19.16;100.00
49945;BME280;35838;49.134;9.212;2023-06-26T04:24:52;99766.53;;;19.24;100.00
49945;BME280;35838;49.134;9.212;2023-06-26T04:26:26;99770.88;;;19.25;100.00
49945;BME280;35838;49.134;9.212;2023-06-26T04:27:59;99764.38;;;19.34;100.00
49945;BME280;35838;49.134;9.212;2023-06-26T04:29:35;99770.41;;;19.36;100.00
49945;BME280;35838;49.134;9.212;2023-06-26T04:31:10;99768.50;;;19.40;100.00
49945;BME280;35838;49.134;9.212;2023-06-26T04:32:43;99769.81;;;19.09;100.00
49945;BME280;35838;49.134;9.212;2023-06-26T04:34:19;99767.00;;;19.14;100.00
49945;BME280;35838;49.134;9.212;2023-06-26T04:35:53;99775.53;;;19.19;100.00
49945;BME280;35838;49.134;9.212;2023-06-26T04:37:27;99769.19;;;19.02;100.00
49945;BME280;35838;49.134;9.212;2023-06-26T04:39:01;99765.16;;;19.16;100.00
49945;BME280;35838;49.134;9.212;2023-06-26T04:40:35;99774.50;;;19.23;100.00
49945;BME280;35838;49.134;9.212;2023-06-26T04:42:08;99770.41;;;19.16;100.00
49945;BME280;35838;49.134;9.212;2023-06-26T04:43:42;99762.91;;;19.27;100.00
49945;BME280;35838;49.134;9.212;2023-06-26T04:45:16;99775.16;;;19.28;100.00
49945;BME280;35838;49.134;9.212;2023-06-26T04:46:50;99764.88;;;19.22;100.00
49945;BME280;35838;49.134;9.212;2023-06-26T04:48:23;99768.13;;;19.29;100.00
49945;BME280;35838;49.134;9.212;2023-06-26T04:50:00;99769.66;;;19.34;100.00
49945;BME280;35838;49.134;9.212;2023-06-26T04:51:34;99766.06;;;19.35;100.00
49945;BME280;35838;49.134;9.212;2023-06-26T04:53:10;99766.66;;;19.42;100.00
49945;BME280;35838;49.134;9.212;2023-06-26T04:54:44;99765.44;;;19.51;100.00
49945;BME280;35838;49.134;9.212;2023-06-26T04:56:18;99774.25;;;19.50;100.00
49945;BME280;35838;49.134;9.212;2023-06-26T04:57:51;99765.94;;;19.38;100.00
49945;BME280;35838;49.134;9.212;2023-06-26T04:59:22;99769.19;;;19.45;100.00
49945;BME280;35838;49.134;9.212;2023-06-26T05:00:56;99769.91;;;19.49;100.00
49945;BME280;35838;49.134;9.212;2023-06-26T05:02:30;99757.34;;;19.55;100.00
49945;BME280;35838;49.134;9.212;2023-06-26T05:04:03;99761.19;;;19.67;100.00
49945;BME280;35838;49.134;9.212;2023-06-26T05:05:39;99764.34;;;19.76;100.00
49945;BME280;35838;49.134;9.212;2023-06-26T05:07:13;99759.72;;;19.81;100.00
49945;BME280;35838;49.134;9.212;2023-06-26T05:08:47;99755.13;;;19.65;100.00
49945;BME280;35838;49.134;9.212;2023-06-26T05:10:20;99755.94;;;19.67;100.00
49945;BME280;35838;49.134;9.212;2023-06-26T05:11:54;99756.84;;;19.66;100.00
49945;BME280;35838;49.134;9.212;2023-06-26T05:13:27;99766.09;;;19.75;100.00
49945;BME280;35838;49.134;9.212;2023-06-26T05:14:58;99758.34;;;19.93;100.00
49945;BME280;35838;49.134;9.212;2023-06-26T05:16:32;99764.28;;;19.98;100.00
49945;BME280;35838;49.134;9.212;2023-06-26T05:18:06;99760.22;;;20.10;100.00
49945;BME280;35838;49.134;9.212;2023-06-26T05:19:39;99753.59;;;20.20;100.00
49945;BME280;35838;49.134;9.212;2023-06-26T05:21:16;99756.81;;;20.27;100.00
49945;BME280;35838;49.134;9.212;2023-06-26T05:22:50;99752.16;;;20.32;100.00
49945;BME280;35838;49.134;9.212;2023-06-26T05:24:23;99752.56;;;20.42;100.00
49945;BME280;35838;49.134;9.212;2023-06-26T05:25:57;99751.59;;;20.44;100.00
49945;BME280;35838;49.134;9.212;2023-06-26T05:27:31;99752.16;;;20.51;100.00
49945;BME280;35838;49.134;9.212;2023-06-26T05:29:05;99751.00;;;20.57;100.00
49945;BME280;35838;49.134;9.212;2023-06-26T05:30:39;99753.28;;;20.64;100.00
49945;BME280;35838;49.134;9.212;2023-06-26T05:32:13;99751.34;;;20.68;100.00
49945;BME280;35838;49.134;9.212;2023-06-26T05:33:48;99756.28;;;20.76;100.00
49945;BME280;35838;49.134;9.212;2023-06-26T05:35:22;99747.59;;;20.74;100.00
49945;BME280;35838;49.134;9.212;2023-06-26T05:36:57;99757.13;;;20.76;100.00
49945;BME280;35838;49.134;9.212;2023-06-26T05:38:31;99752.69;;;20.77;100.00
49945;BME280;35838;49.134;9.212;2023-06-26T05:40:05;99755.81;;;20.85;100.00
49945;BME280;35838;49.134;9.212;2023-06-26T05:41:39;99753.97;;;20.87;100.00
49945;BME280;35838;49.134;9.212;2023-06-26T05:43:13;99752.09;;;20.89;100.00
49945;BME280;35838;49.134;9.212;2023-06-26T05:44:44;99751.78;;;20.95;100.00
49945;BME280;35838;49.134;9.212;2023-06-26T05:46:18;99750.41;;;20.88;100.00
49945;BME280;35838;49.134;9.212;2023-06-26T05:47:52;99750.31;;;20.90;100.00
49945;BME280;35838;49.134;9.212;2023-06-26T05:49:25;99759.66;;;20.97;100.00
49945;BME280;35838;49.134;9.212;2023-06-26T05:50:59;99750.94;;;20.95;100.00
49945;BME280;35838;49.134;9.212;2023-06-26T05:52:36;99754.19;;;21.00;100.00
49945;BME280;35838;49.134;9.212;2023-06-26T05:54:10;99749.63;;;21.04;100.00
49945;BME280;35838;49.134;9.212;2023-06-26T05:55:44;99743.88;;;21.13;100.00
49945;BME280;35838;49.134;9.212;2023-06-26T05:57:18;99752.72;;;21.12;100.00
49945;BME280;35838;49.134;9.212;2023-06-26T05:58:52;99753.97;;;21.22;100.00
49945;BME280;35838;49.134;9.212;2023-06-26T06:00:27;99745.28;;;21.20;100.00
49945;BME280;35838;49.134;9.212;2023-06-26T06:02:00;99751.78;;;21.31;100.00
49945;BME280;35838;49.134;9.212;2023-06-26T06:03:34;99744.75;;;21.31;100.00
49945;BME280;35838;49.134;9.212;2023-06-26T06:05:08;99747.91;;;21.38;100.00
49945;BME280;35838;49.134;9.212;2023-06-26T06:06:41;99742.25;;;21.45;100.00
49945;BME280;35838;49.134;9.212;2023-06-26T06:08:18;99740.97;;;21.53;100.00
49945;BME280;35838;49.134;9.212;2023-06-26T06:09:51;99737.41;;;21.54;100.00
49945;BME280;35838;49.134;9.212;2023-06-26T06:11:25;99742.59;;;21.55;100.00
49945;BME280;35838;49.134;9.212;2023-06-26T06:12:58;99743.16;;;21.62;100.00
49945;BME280;35838;49.134;9.212;2023-06-26T06:14:32;99737.84;;;21.64;100.00
49945;BME280;35838;49.134;9.212;2023-06-26T06:16:05;99741.66;;;21.74;100.00
49945;BME280;35838;49.134;9.212;2023-06-26T06:17:39;99739.50;;;21.65;100.00
49945;BME280;35838;49.134;9.212;2023-06-26T06:19:13;99740.03;;;21.71;100.00
49945;BME280;35838;49.134;9.212;2023-06-26T06:20:46;99739.81;;;21.76;100.00
49945;BME280;35838;49.134;9.212;2023-06-26T06:22:20;99737.84;;;21.80;100.00
49945;BME280;35838;49.134;9.212;2023-06-26T06:23:56;99743.41;;;21.91;100.00
49945;BME280;35838;49.134;9.212;2023-06-26T06:25:31;99738.66;;;21.98;100.00
49945;BME280;35838;49.134;9.212;2023-06-26T06:27:05;99734.75;;;22.05;100.00
49945;BME280;35838;49.134;9.212;2023-06-26T06:28:39;99737.03;;;22.11;100.00
49945;BME280;35838;49.134;9.212;2023-06-26T06:30:12;99732.97;;;22.21;100.00
49945;BME280;35838;49.134;9.212;2023-06-26T06:31:46;99740.63;;;22.10;100.00
49945;BME280;35838;49.134;9.212;2023-06-26T06:33:20;99748.88;;;22.04;100.00
49945;BME280;35838;49.134;9.212;2023-06-26T06:34:54;99740.56;;;22.12;100.00
49945;BME280;35838;49.134;9.212;2023-06-26T06:36:27;99739.28;;;22.19;100.00
49945;BME280;35838;49.134;9.212;2023-06-26T06:38:01;99744.13;;;22.27;100.00
49945;BME280;35838;49.134;9.212;2023-06-26T06:39:37;99743.53;;;22.21;100.00
49945;BME280;35838;49.134;9.212;2023-06-26T06:41:11;99738.41;;;22.18;100.00
49945;BME280;35838;49.134;9.212;2023-06-26T06:42:46;99741.31;;;22.30;100.00
49945;BME280;35838;49.134;9.212;2023-06-26T06:44:20;99744.38;;;22.38;100.00
49945;BME280;35838;49.134;9.212;2023-06-26T06:45:53;99738.78;;;22.44;100.00
49945;BME280;35838;49.134;9.212;2023-06-26T06:47:27;99741.00;;;22.52;100.00
49945;BME280;35838;49.134;9.212;2023-06-26T06:49:01;99740.47;;;22.61;100.00
49945;BME280;35838;49.134;9.212;2023-06-26T06:50:35;99741.00;;;22.68;100.00
49945;BME280;35838;49.134;9.212;2023-06-26T06:52:08;99737.88;;;22.76;100.00
49945;BME280;35838;49.134;9.212;2023-06-26T06:53:42;99746.44;;;22.81;100.00
49945;BME280;35838;49.134;9.212;2023-06-26T06:55:18;99742.84;;;22.82;100.00
49945;BME280;35838;49.134;9.212;2023-06-26T06:56:52;99735.47;;;22.87;100.00
49945;BME280;35838;49.134;9.212;2023-06-26T06:58:25;99735.97;;;22.94;100.00
49945;BME280;35838;49.134;9.212;2023-06-26T06:59:59;99739.19;;;22.99;100.00
49945;BME280;35838;49.134;9.212;2023-06-26T07:01:33;99742.72;;;22.99;100.00
49945;BME280;35838;49.134;9.212;2023-06-26T07:03:06;99731.66;;;23.07;100.00
49945;BME280;35838;49.134;9.212;2023-06-26T07:04:41;99736.75;;;22.96;100.00
49945;BME280;35838;49.134;9.212;2023-06-26T07:06:14;99730.31;;;23.00;100.00
49945;BME280;35838;49.134;9.212;2023-06-26T07:07:48;99730.16;;;23.03;100.00
49945;BME280;35838;49.134;9.212;2023-06-26T07:09:21;99722.94;;;23.05;100.00
49945;BME280;35838;49.134;9.212;2023-06-26T07:10:57;99730.31;;;23.00;100.00
49945;BME280;35838;49.134;9.212;2023-06-26T07:12:32;99729.50;;;22.99;100.00
49945;BME280;35838;49.134;9.212;2023-06-26T07:14:05;99731.88;;;23.04;100.00
49945;BME280;35838;49.134;9.212;2023-06-26T07:15:39;99725.16;;;23.13;100.00
49945;BME280;35838;49.134;9.212;2023-06-26T07:17:13;99725.69;;;23.20;100.00
49945;BME280;35838;49.134;9.212;2023-06-26T07:18:47;99731.28;;;23.29;100.00
49945;BME280;35838;49.134;9.212;2023-06-26T07:20:22;99732.81;;;23.17;100.00
49945;BME280;35838;49.134;9.212;2023-06-26T07:21:56;99735.84;;;23.11;100.00
49945;BME280;35838;49.134;9.212;2023-06-26T07:23:29;99735.34;;;23.21;100.00
49945;BME280;35838;49.134;9.212;2023-06-26T07:25:03;99732.69;;;23.21;100.00
49945;BME280;35838;49.134;9.212;2023-06-26T07:26:42;99734.19;;;23.25;100.00
49945;BME280;35838;49.134;9.212;2023-06-26T07:28:16;99733.09;;;23.43;100.00
49945;BME280;35838;49.134;9.212;2023-06-26T07:29:49;99731.22;;;23.45;100.00
49945;BME280;35838;49.134;9.212;2023-06-26T07:31:23;99725.34;;;23.55;100.00
49945;BME280;35838;49.134;9.212;2023-06-26T07:32:56;99724.88;;;23.62;100.00
49945;BME280;35838;49.134;9.212;2023-06-26T07:34:30;99725.72;;;23.63;100.00
49945;BME280;35838;49.134;9.212;2023-06-26T07:36:04;99725.72;;;23.63;100.00
49945;BME280;35838;49.134;9.212;2023-06-26T07:37:38;99728.66;;;23.58;100.00
49945;BME280;35838;49.134;9.212;2023-06-26T07:39:11;99728.00;;;23.69;100.00
49945;BME280;35838;49.134;9.212;2023-06-26T07:40:45;99720.63;;;23.74;100.00
49945;BME280;35838;49.134;9.212;2023-06-26T07:42:22;99719.41;;;23.80;100.00
49945;BME280;35838;49.134;9.212;2023-06-26T07:43:55;99722.91;;;23.81;100.00
49945;BME280;35838;49.134;9.212;2023-06-26T07:45:29;99724.59;;;23.82;100.00
49945;BME280;35838;49.134;9.212;2023-06-26T07:47:02;99720.91;;;23.84;100.00
49945;BME280;35838;49.134;9.212;2023-06-26T07:48:36;99728.75;;;23.86;100.00
49945;BME280;35838;49.134;9.212;2023-06-26T07:50:10;99729.16;;;23.94;100.00
49945;BME280;35838;49.134;9.212;2023-06-26T07:51:46;99724.97;;;24.04;100.00
49945;BME280;35838;49.134;9.212;2023-06-26T07:53:20;99730.28;;;24.04;100.00
49945;BME280;35838;49.134;9.212;2023-06-26T07:54:53;99727.25;;;24.11;100.00
49945;BME280;35838;49.134;9.212;2023-06-26T07:56:27;99724.50;;;24.12;100.00
49945;BME280;35838;49.134;9.212;2023-06-26T07:58:03;99724.88;;;24.20;100.00
49945;BME280;35838;49.134;9.212;2023-06-26T07:59:37;99727.69;;;24.17;100.00
49945;BME280;35838;49.134;9.212;2023-06-26T08:01:10;99731.06;;;24.34;100.00
49945;BME280;35838;49.134;9.212;2023-06-26T08:02:44;99733.66;;;24.21;100.00
49945;BME280;35838;49.134;9.212;2023-06-26T08:04:18;99726.91;;;24.30;100.00
49945;BME280;35838;49.134;9.212;2023-06-26T08:05:52;99729.06;;;24.37;100.00
49945;BME280;35838;49.134;9.212;2023-06-26T08:07:26;99723.56;;;24.40;100.00
49945;BME280;35838;49.134;9.212;2023-06-26T08:09:00;99728.47;;;24.47;100.00
49945;BME280;35838;49.134;9.212;2023-06-26T08:10:35;99719.19;;;24.54;100.00
49945;BME280;35838;49.134;9.212;2023-06-26T08:12:09;99720.25;;;24.64;100.00
49945;BME280;35838;49.134;9.212;2023-06-26T08:13:45;99714.59;;;24.70;100.00